sensor_id;sensor_type;location;lat;lon;timestamp;pressure;altitude;pressure_sealevel;temperature;humidity
56719;BME280;42597;40.636;0.278;2022-08-21T00:02:23;97282.13;;;25.75;60.09
56719;BME280;42597;40.636;0.278;2022-08-21T00:04:49;97282.91;;;25.63;60.57
56719;BME280;42597;40.636;0.278;2022-08-21T00:07:16;97284.03;;;25.65;60.30
56719;BME280;42597;40.636;0.278;2022-08-21T00:09:42;97278.47;;;25.40;60.60
56719;BME280;42597;40.636;0.278;2022-08-21T00:12:09;97271.28;;;25.68;60.51
56719;BME280;42597;40.636;0.278;2022-08-21T00:14:35;97269.97;;;25.59;59.30
56719;BME280;42597;40.636;0.278;2022-08-21T00:17:02;97264.63;;;25.52;60.59
56719;BME280;42597;40.636;0.278;2022-08-21T00:19:28;97269.97;;;25.59;60.64
56719;BME280;42597;40.636;0.278;2022-08-21T00:21:54;97264.41;;;25.59;60.45
56719;BME280;42597;40.636;0.278;2022-08-21T00:24:21;97265.09;;;25.64;60.27
56719;BME280;42597;40.636;0.278;2022-08-21T00:26:47;97268.19;;;25.66;59.84
56719;BME280;42597;40.636;0.278;2022-08-21T00:29:14;97255.34;;;25.21;60.53
56719;BME280;42597;40.636;0.278;2022-08-21T00:31:42;97257.94;;;24.70;62.26
56719;BME280;42597;40.636;0.278;2022-08-21T00:34:09;97257.75;;;25.19;61.49
56719;BME280;42597;40.636;0.278;2022-08-21T00:36:35;97255.34;;;25.46;60.25
56719;BME280;42597;40.636;0.278;2022-08-21T00:39:02;97257.13;;;25.66;59.62
56719;BME280;42597;40.636;0.278;2022-08-21T00:41:28;97244.06;;;25.53;59.82
56719;BME280;42597;40.636;0.278;2022-08-21T00:43:54;97252.38;;;25.92;58.53
56719;BME280;42597;40.636;0.278;2022-08-21T00:46:20;97250.94;;;25.87;58.29
56719;BME280;42597;40.636;0.278;2022-08-21T00:48:46;97254.50;;;25.07;60.42
56719;BME280;42597;40.636;0.278;2022-08-21T00:51:17;97249.25;;;25.13;60.82
56719;BME280;42597;40.636;0.278;2022-08-21T00:53:50;97254.47;;;25.49;60.24
56719;BME280;42597;40.636;0.278;2022-08-21T00:56:17;97251.34;;;25.73;59.30
56719;BME280;42597;40.636;0.278;2022-08-21T00:58:45;97251.59;;;25.66;59.19
56719;BME280;42597;40.636;0.278;2022-08-21T01:01:11;97252.03;;;25.51;59.27
56719;BME280;42597;40.636;0.278;2022-08-21T01:03:37;97240.09;;;25.42;59.71
56719;BME280;42597;40.636;0.278;2022-08-21T01:06:04;97247.25;;;25.39;59.87
56719;BME280;42597;40.636;0.278;2022-08-21T01:08:31;97246.59;;;25.48;58.87
56719;BME280;42597;40.636;0.278;2022-08-21T01:10:58;97250.91;;;25.36;59.76
56719;BME280;42597;40.636;0.278;2022-08-21T01:13:26;97243.31;;;25.53;59.05
56719;BME280;42597;40.636;0.278;2022-08-21T01:15:54;97243.16;;;25.56;59.44
56719;BME280;42597;40.636;0.278;2022-08-21T01:18:21;97237.09;;;25.62;59.20
56719;BME280;42597;40.636;0.278;2022-08-21T01:21:18;97243.16;;;25.56;58.85
56719;BME280;42597;40.636;0.278;2022-08-21T01:23:48;97238.28;;;25.60;58.89
56719;BME280;42597;40.636;0.278;2022-08-21T01:26:17;97250.13;;;25.48;59.29
56719;BME280;42597;40.636;0.278;2022-08-21T01:28:58;97237.88;;;25.62;58.69
56719;BME280;42597;40.636;0.278;2022-08-21T01:31:27;97232.88;;;25.31;59.85
56719;BME280;42597;40.636;0.278;2022-08-21T01:33:54;97230.97;;;25.16;59.67
56719;BME280;42597;40.636;0.278;2022-08-21T01:36:20;97229.69;;;25.33;58.87
56719;BME280;42597;40.636;0.278;2022-08-21T01:38:47;97227.53;;;25.11;59.88
56719;BME280;42597;40.636;0.278;2022-08-21T01:41:13;97224.25;;;25.29;59.03
56719;BME280;42597;40.636;0.278;2022-08-21T01:43:41;97227.41;;;25.02;59.45
56719;BME280;42597;40.636;0.278;2022-08-21T01:46:07;97231.31;;;24.76;60.75
56719;BME280;42597;40.636;0.278;2022-08-21T01:48:33;97226.44;;;24.80;60.49
56719;BME280;42597;40.636;0.278;2022-08-21T01:50:59;97226.94;;;24.91;60.82
56719;BME280;42597;40.636;0.278;2022-08-21T01:53:25;97228.47;;;25.21;59.37
56719;BME280;42597;40.636;0.278;2022-08-21T01:55:51;97223.13;;;25.27;59.30
56719;BME280;42597;40.636;0.278;2022-08-21T01:58:17;97220.47;;;25.36;59.18
56719;BME280;42597;40.636;0.278;2022-08-21T02:00:42;97224.94;;;25.04;60.23
56719;BME280;42597;40.636;0.278;2022-08-21T02:03:08;97225.59;;;25.25;59.14
56719;BME280;42597;40.636;0.278;2022-08-21T02:05:33;97227.22;;;25.09;59.56
56719;BME280;42597;40.636;0.278;2022-08-21T02:08:00;97225.13;;;25.14;59.55
56719;BME280;42597;40.636;0.278;2022-08-21T02:10:30;97228.81;;;24.94;60.17
56719;BME280;42597;40.636;0.278;2022-08-21T02:12:57;97222.84;;;25.08;59.90
56719;BME280;42597;40.636;0.278;2022-08-21T02:15:24;97227.13;;;25.13;59.39
56719;BME280;42597;40.636;0.278;2022-08-21T02:17:53;97223.03;;;25.18;59.47
56719;BME280;42597;40.636;0.278;2022-08-21T02:20:23;97234.84;;;25.18;59.61
56719;BME280;42597;40.636;0.278;2022-08-21T02:22:49;97226.31;;;25.13;59.19
56719;BME280;42597;40.636;0.278;2022-08-21T02:25:15;97225.19;;;24.97;59.46
56719;BME280;42597;40.636;0.278;2022-08-21T02:27:42;97234.22;;;24.85;59.54
56719;BME280;42597;40.636;0.278;2022-08-21T02:30:12;97237.97;;;24.91;60.21
56719;BME280;42597;40.636;0.278;2022-08-21T02:32:38;97230.31;;;25.11;59.25
56719;BME280;42597;40.636;0.278;2022-08-21T02:35:05;97223.56;;;25.13;58.96
56719;BME280;42597;40.636;0.278;2022-08-21T02:37:30;97223.25;;;25.10;59.06
56719;BME280;42597;40.636;0.278;2022-08-21T02:39:56;97233.00;;;24.86;59.60
56719;BME280;42597;40.636;0.278;2022-08-21T02:42:21;97231.91;;;24.54;59.73
56719;BME280;42597;40.636;0.278;2022-08-21T02:44:47;97229.56;;;23.91;61.72
56719;BME280;42597;40.636;0.278;2022-08-21T02:47:13;97233.44;;;23.61;63.23
56719;BME280;42597;40.636;0.278;2022-08-21T02:49:39;97225.25;;;23.74;62.92
56719;BME280;42597;40.636;0.278;2022-08-21T02:52:05;97233.19;;;23.72;63.23
56719;BME280;42597;40.636;0.278;2022-08-21T02:54:31;97214.06;;;24.43;60.33
56719;BME280;42597;40.636;0.278;2022-08-21T02:56:57;97223.25;;;24.81;59.66
56719;BME280;42597;40.636;0.278;2022-08-21T02:59:22;97225.28;;;24.35;60.39
56719;BME280;42597;40.636;0.278;2022-08-21T03:01:48;97222.84;;;24.08;60.95
56719;BME280;42597;40.636;0.278;2022-08-21T03:04:14;97221.94;;;24.11;61.76
56719;BME280;42597;40.636;0.278;2022-08-21T03:06:39;97226.44;;;24.22;62.04
56719;BME280;42597;40.636;0.278;2022-08-21T03:09:05;97219.38;;;24.79;59.75
56719;BME280;42597;40.636;0.278;2022-08-21T03:11:31;97218.22;;;24.63;59.63
56719;BME280;42597;40.636;0.278;2022-08-21T03:13:56;97219.94;;;24.74;59.67
56719;BME280;42597;40.636;0.278;2022-08-21T03:16:22;97215.78;;;24.95;58.87
56719;BME280;42597;40.636;0.278;2022-08-21T03:18:47;97216.34;;;25.02;58.52
56719;BME280;42597;40.636;0.278;2022-08-21T03:21:13;97221.56;;;24.71;59.07
56719;BME280;42597;40.636;0.278;2022-08-21T03:23:39;97229.72;;;24.17;61.31
56719;BME280;42597;40.636;0.278;2022-08-21T03:26:07;97225.84;;;24.59;60.02
56719;BME280;42597;40.636;0.278;2022-08-21T03:28:33;97218.22;;;24.93;59.19
56719;BME280;42597;40.636;0.278;2022-08-21T03:30:59;97217.38;;;24.79;59.07
56719;BME280;42597;40.636;0.278;2022-08-21T03:33:24;97220.25;;;24.01;60.76
56719;BME280;42597;40.636;0.278;2022-08-21T03:36:03;97227.34;;;23.86;61.45
56719;BME280;42597;40.636;0.278;2022-08-21T03:38:30;97235.44;;;23.77;61.72
56719;BME280;42597;40.636;0.278;2022-08-21T03:40:57;97227.25;;;23.89;61.01
56719;BME280;42597;40.636;0.278;2022-08-21T03:43:22;97232.50;;;24.17;59.96
56719;BME280;42597;40.636;0.278;2022-08-21T03:45:48;97233.53;;;24.52;59.88
56719;BME280;42597;40.636;0.278;2022-08-21T03:48:14;97237.00;;;24.85;58.26
56719;BME280;42597;40.636;0.278;2022-08-21T03:50:42;97236.16;;;24.72;59.00
56719;BME280;42597;40.636;0.278;2022-08-21T03:53:09;97234.50;;;24.74;58.68
56719;BME280;42597;40.636;0.278;2022-08-21T03:55:36;97234.00;;;24.92;58.31
56719;BME280;42597;40.636;0.278;2022-08-21T03:58:02;97230.13;;;24.90;58.11
56719;BME280;42597;40.636;0.278;2022-08-21T04:00:28;97229.44;;;24.73;58.56
56719;BME280;42597;40.636;0.278;2022-08-21T04:02:54;97232.28;;;24.69;58.72
56719;BME280;42597;40.636;0.278;2022-08-21T04:05:20;97238.81;;;24.75;58.56
56719;BME280;42597;40.636;0.278;2022-08-21T04:07:54;97243.50;;;24.91;57.84
56719;BME280;42597;40.636;0.278;2022-08-21T04:10:20;97237.25;;;24.61;58.73
56719;BME280;42597;40.636;0.278;2022-08-21T04:12:46;97242.72;;;24.78;58.00
56719;BME280;42597;40.636;0.278;2022-08-21T04:15:12;97238.47;;;24.60;59.39
56719;BME280;42597;40.636;0.278;2022-08-21T04:17:38;97248.66;;;24.47;61.63
56719;BME280;42597;40.636;0.278;2022-08-21T04:20:04;97238.72;;;24.04;61.56
56719;BME280;42597;40.636;0.278;2022-08-21T04:22:30;97237.69;;;23.66;62.35
56719;BME280;42597;40.636;0.278;2022-08-21T04:24:56;97242.13;;;23.59;62.22
56719;BME280;42597;40.636;0.278;2022-08-21T04:27:21;97240.53;;;23.26;62.77
56719;BME280;42597;40.636;0.278;2022-08-21T04:29:47;97246.72;;;22.94;64.01
56719;BME280;42597;40.636;0.278;2022-08-21T04:32:13;97253.00;;;22.94;63.82
56719;BME280;42597;40.636;0.278;2022-08-21T04:34:38;97247.81;;;23.16;63.17
56719;BME280;42597;40.636;0.278;2022-08-21T04:37:04;97243.66;;;22.88;63.97
56719;BME280;42597;40.636;0.278;2022-08-21T04:39:29;97240.59;;;22.82;64.22
56719;BME280;42597;40.636;0.278;2022-08-21T04:41:55;97245.34;;;22.82;64.61
56719;BME280;42597;40.636;0.278;2022-08-21T04:44:21;97253.28;;;23.20;62.78
56719;BME280;42597;40.636;0.278;2022-08-21T04:46:46;97249.84;;;22.96;63.94
56719;BME280;42597;40.636;0.278;2022-08-21T04:49:12;97252.53;;;23.15;62.78
56719;BME280;42597;40.636;0.278;2022-08-21T04:51:38;97247.13;;;23.64;61.48
56719;BME280;42597;40.636;0.278;2022-08-21T04:54:12;97244.56;;;23.90;60.68
56719;BME280;42597;40.636;0.278;2022-08-21T04:56:45;97252.00;;;24.09;60.30
56719;BME280;42597;40.636;0.278;2022-08-21T04:59:25;97250.09;;;24.06;60.20
56719;BME280;42597;40.636;0.278;2022-08-21T05:01:52;97254.31;;;24.11;59.66
56719;BME280;42597;40.636;0.278;2022-08-21T05:04:23;97254.03;;;24.22;59.29
56719;BME280;42597;40.636;0.278;2022-08-21T05:06:50;97246.59;;;24.35;59.15
56719;BME280;42597;40.636;0.278;2022-08-21T05:09:18;97251.22;;;23.93;59.63
56719;BME280;42597;40.636;0.278;2022-08-21T05:11:45;97261.09;;;23.57;61.49
56719;BME280;42597;40.636;0.278;2022-08-21T05:14:11;97260.44;;;24.02;60.27
56719;BME280;42597;40.636;0.278;2022-08-21T05:16:37;97258.19;;;24.13;58.60
56719;BME280;42597;40.636;0.278;2022-08-21T05:19:05;97264.66;;;23.91;60.13
56719;BME280;42597;40.636;0.278;2022-08-21T05:21:30;97267.50;;;23.87;60.49
56719;BME280;42597;40.636;0.278;2022-08-21T05:23:56;97266.13;;;23.79;59.59
56719;BME280;42597;40.636;0.278;2022-08-21T05:26:22;97257.16;;;23.91;60.33
56719;BME280;42597;40.636;0.278;2022-08-21T05:28:48;97258.53;;;24.16;59.32
56719;BME280;42597;40.636;0.278;2022-08-21T11:27:58;97141.19;;;29.75;44.71
56719;BME280;42597;40.636;0.278;2022-08-21T11:30:33;97141.97;;;30.68;41.56
56719;BME280;42597;40.636;0.278;2022-08-21T11:33:49;97130.50;;;30.36;43.29
56719;BME280;42597;40.636;0.278;2022-08-21T11:38:59;97136.56;;;30.35;43.52
56719;BME280;42597;40.636;0.278;2022-08-21T11:41:30;97123.19;;;30.24;43.37
56719;BME280;42597;40.636;0.278;2022-08-21T11:49:34;97121.31;;;30.75;42.67
56719;BME280;42597;40.636;0.278;2022-08-21T11:57:20;97111.97;;;30.92;42.44
56719;BME280;42597;40.636;0.278;2022-08-21T12:02:36;97101.06;;;31.24;41.77
56719;BME280;42597;40.636;0.278;2022-08-21T12:05:08;97099.75;;;31.05;42.41
56719;BME280;42597;40.636;0.278;2022-08-21T12:07:43;97099.00;;;30.60;42.79
56719;BME280;42597;40.636;0.278;2022-08-21T12:10:18;97093.41;;;31.04;42.38
56719;BME280;42597;40.636;0.278;2022-08-21T12:12:47;97082.25;;;30.30;44.52
56719;BME280;42597;40.636;0.278;2022-08-21T12:22:54;97077.91;;;31.23;44.07
56719;BME280;42597;40.636;0.278;2022-08-21T12:25:21;97069.75;;;31.55;43.67
56719;BME280;42597;40.636;0.278;2022-08-21T12:27:51;97067.94;;;31.17;43.15
56719;BME280;42597;40.636;0.278;2022-08-21T12:33:01;97064.66;;;31.33;48.74
56719;BME280;42597;40.636;0.278;2022-08-21T12:35:40;97062.94;;;31.21;48.03
56719;BME280;42597;40.636;0.278;2022-08-21T12:38:26;97056.38;;;31.24;47.90
56719;BME280;42597;40.636;0.278;2022-08-21T13:11:15;97037.38;;;31.08;50.45
56719;BME280;42597;40.636;0.278;2022-08-21T13:13:43;97036.59;;;31.28;52.73
56719;BME280;42597;40.636;0.278;2022-08-21T13:16:09;97036.53;;;31.22;52.98
56719;BME280;42597;40.636;0.278;2022-08-21T13:18:54;97050.00;;;31.23;53.74
56719;BME280;42597;40.636;0.278;2022-08-21T13:21:20;97047.13;;;30.97;54.94
56719;BME280;42597;40.636;0.278;2022-08-21T13:23:46;97043.94;;;31.05;54.91
56719;BME280;42597;40.636;0.278;2022-08-21T13:26:17;97039.34;;;30.87;52.60
56719;BME280;42597;40.636;0.278;2022-08-21T13:28:43;97049.09;;;31.12;53.83
56719;BME280;42597;40.636;0.278;2022-08-21T13:31:17;97047.44;;;30.85;55.61
56719;BME280;42597;40.636;0.278;2022-08-21T13:33:43;97045.63;;;31.17;55.02
56719;BME280;42597;40.636;0.278;2022-08-21T13:38:36;97038.22;;;31.14;54.32
56719;BME280;42597;40.636;0.278;2022-08-21T13:41:16;97046.97;;;31.07;54.78
56719;BME280;42597;40.636;0.278;2022-08-21T13:43:46;97045.84;;;30.98;55.25
56719;BME280;42597;40.636;0.278;2022-08-21T13:46:14;97035.13;;;30.77;55.62
56719;BME280;42597;40.636;0.278;2022-08-21T13:48:41;97035.13;;;30.62;55.37
56719;BME280;42597;40.636;0.278;2022-08-21T13:51:08;97018.88;;;31.10;54.04
56719;BME280;42597;40.636;0.278;2022-08-21T13:53:43;97038.00;;;30.82;54.60
56719;BME280;42597;40.636;0.278;2022-08-21T13:56:25;97033.84;;;30.92;55.34
56719;BME280;42597;40.636;0.278;2022-08-21T13:58:53;97030.03;;;31.10;54.32
56719;BME280;42597;40.636;0.278;2022-08-21T14:04:25;97023.53;;;30.98;56.31
56719;BME280;42597;40.636;0.278;2022-08-21T14:06:52;97022.06;;;30.38;49.48
56719;BME280;42597;40.636;0.278;2022-08-21T14:09:41;97026.81;;;29.93;56.32
56719;BME280;42597;40.636;0.278;2022-08-21T14:12:17;97024.13;;;29.99;58.55
56719;BME280;42597;40.636;0.278;2022-08-21T14:14:45;97018.22;;;30.51;58.06
56719;BME280;42597;40.636;0.278;2022-08-21T14:17:16;97030.53;;;28.61;55.63
56719;BME280;42597;40.636;0.278;2022-08-21T14:19:51;97016.00;;;30.55;57.88
56719;BME280;42597;40.636;0.278;2022-08-21T14:22:37;97012.53;;;31.10;56.06
56719;BME280;42597;40.636;0.278;2022-08-21T14:25:07;97014.25;;;30.72;57.59
56719;BME280;42597;40.636;0.278;2022-08-21T14:27:42;97015.00;;;28.45;57.25
56719;BME280;42597;40.636;0.278;2022-08-21T14:30:21;97007.63;;;28.24;60.10
56719;BME280;42597;40.636;0.278;2022-08-21T14:32:47;97014.19;;;30.22;58.59
56719;BME280;42597;40.636;0.278;2022-08-21T14:35:14;97014.56;;;30.44;57.56
56719;BME280;42597;40.636;0.278;2022-08-21T14:37:43;97005.50;;;30.79;56.00
56719;BME280;42597;40.636;0.278;2022-08-21T14:40:11;97007.34;;;31.03;54.87
56719;BME280;42597;40.636;0.278;2022-08-21T14:42:37;97016.44;;;31.18;54.55
56719;BME280;42597;40.636;0.278;2022-08-21T14:45:26;97008.53;;;28.30;57.51
56719;BME280;42597;40.636;0.278;2022-08-21T14:47:54;97008.19;;;29.85;58.88
56719;BME280;42597;40.636;0.278;2022-08-21T14:50:20;97003.59;;;30.56;56.48
56719;BME280;42597;40.636;0.278;2022-08-21T14:52:46;96997.47;;;30.52;56.30
56719;BME280;42597;40.636;0.278;2022-08-21T14:55:13;96999.94;;;30.64;54.30
56719;BME280;42597;40.636;0.278;2022-08-21T14:57:41;97002.31;;;29.68;53.82
56719;BME280;42597;40.636;0.278;2022-08-21T15:00:11;96994.16;;;28.83;56.14
56719;BME280;42597;40.636;0.278;2022-08-21T15:02:37;96989.53;;;28.80;57.53
56719;BME280;42597;40.636;0.278;2022-08-21T15:05:04;96985.59;;;29.44;55.60
56719;BME280;42597;40.636;0.278;2022-08-21T15:07:30;96982.38;;;30.93;55.39
56719;BME280;42597;40.636;0.278;2022-08-21T15:09:55;96986.84;;;31.26;54.50
56719;BME280;42597;40.636;0.278;2022-08-21T15:12:23;96980.88;;;30.63;55.20
56719;BME280;42597;40.636;0.278;2022-08-21T15:14:49;96984.63;;;31.10;54.75
56719;BME280;42597;40.636;0.278;2022-08-21T15:17:15;96981.88;;;30.30;57.40
56719;BME280;42597;40.636;0.278;2022-08-21T15:19:41;96971.75;;;30.77;54.80
56719;BME280;42597;40.636;0.278;2022-08-21T15:22:06;96971.31;;;29.75;57.51
56719;BME280;42597;40.636;0.278;2022-08-21T15:24:32;96970.59;;;31.04;53.61
56719;BME280;42597;40.636;0.278;2022-08-21T15:27:00;96975.78;;;30.76;54.64
56719;BME280;42597;40.636;0.278;2022-08-21T15:29:26;96976.09;;;30.98;53.48
56719;BME280;42597;40.636;0.278;2022-08-21T15:31:57;96962.81;;;30.73;54.39
56719;BME280;42597;40.636;0.278;2022-08-21T15:34:25;96960.66;;;30.33;51.83
56719;BME280;42597;40.636;0.278;2022-08-21T15:36:53;96972.28;;;30.96;53.54
56719;BME280;42597;40.636;0.278;2022-08-21T15:39:18;96975.50;;;30.74;53.57
56719;BME280;42597;40.636;0.278;2022-08-21T15:41:45;96958.00;;;30.73;54.15
56719;BME280;42597;40.636;0.278;2022-08-21T15:44:12;96953.63;;;30.87;52.92
56719;BME280;42597;40.636;0.278;2022-08-21T15:46:39;96952.94;;;30.92;52.32
56719;BME280;42597;40.636;0.278;2022-08-21T15:49:05;96952.50;;;30.79;52.70
56719;BME280;42597;40.636;0.278;2022-08-21T15:51:32;96953.06;;;30.83;52.14
56719;BME280;42597;40.636;0.278;2022-08-21T15:53:58;96950.63;;;30.91;51.87
56719;BME280;42597;40.636;0.278;2022-08-21T15:56:28;96949.59;;;31.09;50.70
56719;BME280;42597;40.636;0.278;2022-08-21T15:59:00;96947.22;;;30.66;52.67
56719;BME280;42597;40.636;0.278;2022-08-21T16:01:27;96941.16;;;29.88;55.38
56719;BME280;42597;40.636;0.278;2022-08-21T16:03:54;96940.81;;;29.57;52.07
56719;BME280;42597;40.636;0.278;2022-08-21T16:06:21;96939.19;;;30.39;52.49
56719;BME280;42597;40.636;0.278;2022-08-21T16:08:47;96939.25;;;30.94;51.10
56719;BME280;42597;40.636;0.278;2022-08-21T16:11:14;96942.53;;;30.58;52.12
56719;BME280;42597;40.636;0.278;2022-08-21T16:13:43;96942.06;;;31.15;50.20
56719;BME280;42597;40.636;0.278;2022-08-21T16:16:16;96947.78;;;30.70;51.33
56719;BME280;42597;40.636;0.278;2022-08-21T16:18:42;96935.28;;;30.81;50.79
56719;BME280;42597;40.636;0.278;2022-08-21T16:21:08;96928.59;;;30.93;50.13
56719;BME280;42597;40.636;0.278;2022-08-21T16:23:35;96929.50;;;30.84;49.99
56719;BME280;42597;40.636;0.278;2022-08-21T16:26:02;96931.03;;;30.85;50.18
56719;BME280;42597;40.636;0.278;2022-08-21T16:28:29;96926.28;;;29.14;54.52
56719;BME280;42597;40.636;0.278;2022-08-21T16:30:55;96920.97;;;30.73;50.63
56719;BME280;42597;40.636;0.278;2022-08-21T16:33:34;96923.56;;;30.77;50.96
56719;BME280;42597;40.636;0.278;2022-08-21T16:36:03;96919.31;;;30.66;49.61
56719;BME280;42597;40.636;0.278;2022-08-21T16:38:29;96927.66;;;30.31;52.69
56719;BME280;42597;40.636;0.278;2022-08-21T16:40:58;96917.69;;;30.95;50.38
56719;BME280;42597;40.636;0.278;2022-08-21T16:43:27;96926.94;;;30.66;51.16
56719;BME280;42597;40.636;0.278;2022-08-21T16:45:54;96930.25;;;30.35;51.76
56719;BME280;42597;40.636;0.278;2022-08-21T16:48:21;96923.75;;;30.73;50.37
56719;BME280;42597;40.636;0.278;2022-08-21T16:50:47;96922.38;;;30.83;49.50
56719;BME280;42597;40.636;0.278;2022-08-21T16:53:13;96927.41;;;30.29;50.48
56719;BME280;42597;40.636;0.278;2022-08-21T16:55:39;96929.72;;;30.66;49.77
56719;BME280;42597;40.636;0.278;2022-08-21T16:58:14;96930.06;;;30.38;50.20
56719;BME280;42597;40.636;0.278;2022-08-21T17:00:42;96934.75;;;30.47;49.44
56719;BME280;42597;40.636;0.278;2022-08-21T17:03:12;96934.31;;;30.69;48.94
56719;BME280;42597;40.636;0.278;2022-08-21T17:05:41;96932.97;;;30.79;48.27
56719;BME280;42597;40.636;0.278;2022-08-21T17:08:07;96933.53;;;30.83;48.47
56719;BME280;42597;40.636;0.278;2022-08-21T17:10:35;96925.41;;;30.65;48.25
56719;BME280;42597;40.636;0.278;2022-08-21T17:13:01;96933.88;;;30.91;47.71
56719;BME280;42597;40.636;0.278;2022-08-21T17:15:33;96930.88;;;30.74;48.05
56719;BME280;42597;40.636;0.278;2022-08-21T17:18:00;96922.03;;;30.61;48.73
56719;BME280;42597;40.636;0.278;2022-08-21T17:20:27;96930.94;;;30.44;48.67
56719;BME280;42597;40.636;0.278;2022-08-21T17:22:53;96929.88;;;30.42;49.02
56719;BME280;42597;40.636;0.278;2022-08-21T17:25:19;96936.50;;;30.44;48.86
56719;BME280;42597;40.636;0.278;2022-08-21T17:27:46;96935.94;;;30.40;48.84
56719;BME280;42597;40.636;0.278;2022-08-21T17:30:13;96924.53;;;30.23;49.65
56719;BME280;42597;40.636;0.278;2022-08-21T17:32:41;96927.56;;;30.40;49.22
56719;BME280;42597;40.636;0.278;2022-08-21T17:35:08;96931.31;;;30.37;48.81
56719;BME280;42597;40.636;0.278;2022-08-21T17:37:34;96937.78;;;30.29;49.22
56719;BME280;42597;40.636;0.278;2022-08-21T17:40:01;96940.28;;;30.27;49.39
56719;BME280;42597;40.636;0.278;2022-08-21T17:42:28;96942.41;;;30.17;49.64
56719;BME280;42597;40.636;0.278;2022-08-21T17:44:54;96941.41;;;30.35;48.95
56719;BME280;42597;40.636;0.278;2022-08-21T17:47:21;96945.13;;;29.58;51.07
56719;BME280;42597;40.636;0.278;2022-08-21T17:49:47;96944.50;;;29.92;50.61
56719;BME280;42597;40.636;0.278;2022-08-21T17:52:13;96946.59;;;29.29;52.74
56719;BME280;42597;40.636;0.278;2022-08-21T17:54:38;96947.09;;;29.42;53.07
56719;BME280;42597;40.636;0.278;2022-08-21T17:57:06;96938.59;;;29.22;53.04
56719;BME280;42597;40.636;0.278;2022-08-21T17:59:33;96940.84;;;29.86;50.87
56719;BME280;42597;40.636;0.278;2022-08-21T18:01:59;96942.47;;;29.93;48.64
56719;BME280;42597;40.636;0.278;2022-08-21T18:04:27;96951.50;;;30.03;48.34
56719;BME280;42597;40.636;0.278;2022-08-21T18:06:53;96959.50;;;29.80;47.99
56719;BME280;42597;40.636;0.278;2022-08-21T18:09:20;96958.78;;;29.70;48.37
56719;BME280;42597;40.636;0.278;2022-08-21T18:11:48;96956.31;;;29.87;48.43
56719;BME280;42597;40.636;0.278;2022-08-21T18:14:14;96954.97;;;29.68;49.46
56719;BME280;42597;40.636;0.278;2022-08-21T18:16:40;96958.06;;;29.22;52.14
56719;BME280;42597;40.636;0.278;2022-08-21T18:19:10;96962.91;;;28.88;53.45
56719;BME280;42597;40.636;0.278;2022-08-21T18:21:39;96960.03;;;29.07;52.91
56719;BME280;42597;40.636;0.278;2022-08-21T18:24:05;96968.06;;;29.52;50.36
56719;BME280;42597;40.636;0.278;2022-08-21T18:26:34;96970.69;;;29.71;49.78
56719;BME280;42597;40.636;0.278;2022-08-21T18:29:04;96974.84;;;29.90;49.22
56719;BME280;42597;40.636;0.278;2022-08-21T18:31:32;96970.25;;;29.48;50.43
56719;BME280;42597;40.636;0.278;2022-08-21T18:34:03;96976.19;;;29.41;51.29
56719;BME280;42597;40.636;0.278;2022-08-21T18:36:30;96980.00;;;29.29;52.18
56719;BME280;42597;40.636;0.278;2022-08-21T18:38:56;96979.91;;;29.38;51.90
56719;BME280;42597;40.636;0.278;2022-08-21T18:41:22;96980.81;;;29.44;52.11
56719;BME280;42597;40.636;0.278;2022-08-21T18:43:48;96986.13;;;29.33;52.41
56719;BME280;42597;40.636;0.278;2022-08-21T18:46:14;96977.88;;;29.24;53.25
56719;BME280;42597;40.636;0.278;2022-08-21T18:48:41;96978.41;;;28.80;53.54
56719;BME280;42597;40.636;0.278;2022-08-21T18:51:07;96978.16;;;28.69;54.01
56719;BME280;42597;40.636;0.278;2022-08-21T18:53:33;96985.03;;;28.49;54.32
56719;BME280;42597;40.636;0.278;2022-08-21T18:55:59;96987.19;;;28.55;54.76
56719;BME280;42597;40.636;0.278;2022-08-21T18:58:25;96979.78;;;28.51;54.77
56719;BME280;42597;40.636;0.278;2022-08-21T19:00:52;96985.63;;;28.63;54.68
56719;BME280;42597;40.636;0.278;2022-08-21T19:03:22;96989.59;;;28.71;54.18
56719;BME280;42597;40.636;0.278;2022-08-21T19:05:47;96995.38;;;29.39;52.28
56719;BME280;42597;40.636;0.278;2022-08-21T19:08:16;96991.41;;;28.74;54.32
56719;BME280;42597;40.636;0.278;2022-08-21T19:10:43;97011.44;;;29.20;52.64
56719;BME280;42597;40.636;0.278;2022-08-21T19:13:11;97002.31;;;29.20;52.43
56719;BME280;42597;40.636;0.278;2022-08-21T19:15:40;97006.44;;;29.00;53.27
56719;BME280;42597;40.636;0.278;2022-08-21T19:18:06;97007.63;;;29.09;52.96
56719;BME280;42597;40.636;0.278;2022-08-21T19:20:35;97009.47;;;29.12;53.74
56719;BME280;42597;40.636;0.278;2022-08-21T19:23:05;97021.50;;;28.85;54.52
56719;BME280;42597;40.636;0.278;2022-08-21T19:25:31;97023.84;;;28.77;53.98
56719;BME280;42597;40.636;0.278;2022-08-21T19:27:57;97022.22;;;29.04;53.20
56719;BME280;42597;40.636;0.278;2022-08-21T19:30:26;97021.75;;;28.63;54.26
56719;BME280;42597;40.636;0.278;2022-08-21T19:32:53;97015.78;;;28.46;54.91
56719;BME280;42597;40.636;0.278;2022-08-21T19:35:19;97025.41;;;28.69;54.39
56719;BME280;42597;40.636;0.278;2022-08-21T19:37:45;97021.41;;;28.70;54.75
56719;BME280;42597;40.636;0.278;2022-08-21T19:40:12;97022.09;;;28.56;54.37
56719;BME280;42597;40.636;0.278;2022-08-21T19:42:39;97030.16;;;28.44;55.42
56719;BME280;42597;40.636;0.278;2022-08-21T19:45:06;97034.09;;;28.62;55.10
56719;BME280;42597;40.636;0.278;2022-08-21T19:47:34;97036.91;;;28.52;55.51
56719;BME280;42597;40.636;0.278;2022-08-21T19:50:03;97040.00;;;28.55;54.82
56719;BME280;42597;40.636;0.278;2022-08-21T19:52:29;97045.94;;;28.11;56.26
56719;BME280;42597;40.636;0.278;2022-08-21T19:54:57;97048.75;;;27.83;57.09
56719;BME280;42597;40.636;0.278;2022-08-21T19:57:22;97054.00;;;27.90;55.76
56719;BME280;42597;40.636;0.278;2022-08-21T19:59:48;97070.03;;;27.95;56.07
56719;BME280;42597;40.636;0.278;2022-08-21T20:02:15;97066.78;;;27.88;57.53
56719;BME280;42597;40.636;0.278;2022-08-21T20:04:43;97071.19;;;27.58;59.77